Kezdőlap
METAR-TAF:

METAR-TAF

Repülőterek :

Luxeuil-les-Bains, Franciaország

földrajzi szélesség: 47-47N, földrajzi hosszúság: 006-21E, magasság: 278 m

Jelenlegi meteorológiai megfigyelések

A jelentés 17 perccel ezelõtt készült, 07:30 UTC
Nyugat-délnyugati szél 10 kt, délnyugati és nyugati között változik
Hőmérséklet 8°C
Páratartalom 100%
Légköri nyomás 1009 hPa
Látótávolság: 7000 m
enyhe szitálás

METAR: LFSX 280730Z AUTO 25010KT 220V280 7000 -DZ ////// 08/08 Q1009

Idő: 08:47 (07:47 UTC)

Előrejelzés

A jelentés 2 órával és 17 perccel ezelõtt készült, 05:30 UTC
Az előrejelzés 28-én 06 óra UTC és 29-én 03 óra UTC között érvényes
Délnyugati szél 10 kt széllökések: 25 kt
Látótávolság: 4000 m
Borult 500 lábon
esõ
28-én 13 óra UTC és 28-én 15 óra UTC között fokozatosan kialakuló
Látótávolság: 6000 m
Borult 800 lábon

TAF: LFSX 280530Z 2806/2903 23010G25KT 4000 RA OVC005 BECMG 2813/2815 6000 OVC008

Meteorológiai megfigyelések és előrejelzések több, mint 4000 repülőtéren (METAR és TAF jelentéseket).

A térképen piros és sárga pontok jelzik az elérhető meteorológiai állomásokat.

Mozgassa az egeret a pont fölött, hogy megjelenjen az állomás neve.

Azután kattintson az időjárási megfigyelések és előrejelzések megtekintéséhez.

A térkép megváltoztatása: kattintson a fekete keresztel jelölt zöld gombra ráközelítéshez, a vonallal jelölt zöld gombra távolításhoz, vagy a zöld nyilakra a szomszédos térképek eléréséhez.


METAR-TAF: